Terminal Aerodrome Forecast
Issued by NWS Duluth, MN

Home | Current Version | Previous Version | Text Only | Print | Product List | Glossary On
Versions: 1 2 3 4 5 6 7 8 9 10 11 12 13 14 15 16 17 18 19 20 21 22 23 24 25 26 27 28 29 30 31 32 33 34 35
000
FTUS43 KDLH 212300
TAFDLH
TAF
KDLH 212320Z 2200/2224 34009KT P6SM SCT040
      TEMPO 2201/2204 BKN035
     FM220600 28003KT P6SM SKC
      TEMPO 2209/2213 6SM BR SCT006
     FM221300 27009KT P6SM SCT035=

USA.gov is the U.S. government's official web portal to all federal, state and local government web resources and services.